Data for 01/21/2008

Time Sea-Level Adjusted Pressure Absolute Pressure Temperature Relative Humidity Dew Point   
(mb) (inHg) (mb) (inHg) (C) (F) (%) (C) (F)
00:05 1019 30.09 848 25.04 -21 -5.9 72 -24.8 -12.7
00:10 1019 30.09 848 25.04 -21.1 -5.9 74 -24.6 -12.2
00:15 1019 30.09 849 25.07 -21.2 -6.1 75 -24.5 -12.2
00:20 1019 30.09 849 25.07 -21.2 -6.1 75 -24.5 -12.1
00:25 1019 30.09 848 25.04 -21.2 -6.2 73 -24.9 -12.8
00:30 1019 30.09 848 25.04 -21.3 -6.3 76 -24.5 -12.2
00:35 1019 30.09 848 25.04 -21.4 -6.4 76 -24.5 -12.1
00:40 1019 30.09 848 25.04 -21.4 -6.4 73 -25 -13
00:45 1019 30.09 848 25.04 -21.4 -6.5 73 -25.1 -13.1
00:50 1019 30.09 848 25.04 -21.4 -6.6 73 -25 -13.1
00:55 1019 30.09 848 25.04 -21.5 -6.6 74 -25 -13
01:00 1019 30.09 848 25.04 -21.5 -6.6 73 -25.1 -13.1
01:05 1019 30.09 848 25.04 -21.6 -6.8 73 -25.3 -13.5
01:10 1019 30.09 848 25.04 -21.7 -7 72 -25.4 -13.7
01:15 1019 30.09 848 25.04 -21.8 -7.2 73 -25.5 -13.8
01:20 1019 30.09 848 25.04 -21.8 -7.3 71 -25.7 -14.3
01:25 1019 30.09 848 25.04 -21.8 -7.3 71 -25.8 -14.4
01:30 1019 30.09 848 25.04 -21.8 -7.3 70 -25.9 -14.6
01:35 1019 30.09 848 25.04 -21.9 -7.4 70 -25.9 -14.7
01:40 1019 30.09 848 25.04 -21.9 -7.5 70 -26.1 -14.9
01:45 1019 30.09 848 25.04 -21.9 -7.5 69 -26.1 -15
01:50 1019 30.09 848 25.04 -22 -7.6 69 -26.2 -15.1
01:55 1019 30.09 848 25.04 -22 -7.5 68 -26.3 -15.4
02:00 1019 30.09 848 25.04 -22 -7.6 68 -26.4 -15.5
02:05 1019 30.09 848 25.04 -22.1 -7.7 69 -26.3 -15.3
02:10 1019 30.09 848 25.04 -22.1 -7.8 69 -26.3 -15.3
02:15 1019 30.09 848 25.04 -22.2 -8 71 -26.1 -15
02:20 1019 30.09 848 25.04 -22.4 -8.2 73 -26 -14.8
02:25 1019 30.09 848 25.04 -22.4 -8.3 73 -26 -14.8
02:30 1019 30.09 848 25.04 -22.4 -8.3 71 -26.3 -15.4
02:35 1019 30.09 848 25.04 -22.3 -8.2 70 -26.4 -15.5
02:40 1019 30.09 848 25.04 -22.4 -8.2 70 -26.4 -15.5
02:45 1019 30.09 848 25.04 -22.3 -8.2 70 -26.4 -15.5
02:50 1019 30.09 848 25.04 -22.4 -8.3 71 -26.3 -15.4
02:55 1019 30.09 848 25.04 -22.4 -8.3 71 -26.4 -15.5
03:00 1019 30.09 848 25.04 -22.5 -8.4 71 -26.3 -15.4
03:05 1019 30.09 848 25.04 -22.5 -8.5 71 -26.3 -15.4
03:10 1019 30.09 848 25.04 -22.5 -8.6 72 -26.3 -15.4
03:15 1019 30.09 848 25.04 -22.5 -8.6 72 -26.2 -15.2
03:20 1019 30.09 848 25.04 -22.6 -8.7 73 -26.3 -15.3
03:25 1019 30.09 848 25.04 -22.7 -8.9 73 -26.3 -15.3
03:30 1019 30.09 848 25.04 -22.7 -8.9 73 -26.3 -15.4
03:35 1019 30.09 848 25.04 -22.7 -8.9 73 -26.4 -15.5
03:40 1019 30.09 848 25.04 -22.7 -8.9 72 -26.5 -15.6
03:45 1019 30.09 848 25.04 -22.8 -9 71 -26.6 -15.9
03:50 1019 30.09 849 25.07 -22.7 -8.9 72 -26.6 -15.8
03:55 1019 30.09 849 25.07 -22.8 -9 74 -26.3 -15.3
04:00 1019 30.09 849 25.07 -22.8 -9.1 75 -26.1 -15
04:05 1019 30.09 849 25.07 -23 -9.3 76 -26.1 -15
04:10 1019 30.09 849 25.07 -23 -9.4 77 -26 -14.8
04:15 1019 30.09 849 25.07 -23.1 -9.5 77 -26.1 -15
04:20 1019 30.09 849 25.07 -23.2 -9.7 76 -26.3 -15.3
04:25 1019 30.09 849 25.07 -23.2 -9.8 76 -26.4 -15.4
04:30 1019 30.09 849 25.07 -23.2 -9.8 75 -26.5 -15.7
04:35 1019 30.09 849 25.07 -23.3 -9.9 75 -26.5 -15.7
04:40 1019 30.09 849 25.07 -23.3 -9.9 75 -26.6 -15.9
04:45 1020 30.12 849 25.07 -23.4 -10.1 76 -26.5 -15.8
04:50 1020 30.12 849 25.07 -23.4 -10.2 76 -26.6 -15.9
04:55 1020 30.12 849 25.07 -23.4 -10 75 -26.6 -15.9
05:00 1020 30.12 849 25.07 -23.4 -10.1 75 -26.7 -16.1
05:05 1019 30.09 849 25.07 -23.5 -10.2 75 -26.8 -16.2
05:10 1019 30.09 849 25.07 -23.5 -10.4 73 -27.1 -16.7
05:15 1019 30.09 849 25.07 -23.5 -10.4 74 -27 -16.6
05:20 1019 30.09 849 25.07 -23.6 -10.4 73 -27.1 -16.8
05:25 1019 30.09 849 25.07 -23.5 -10.3 73 -27.1 -16.7
05:30 1019 30.09 849 25.07 -23.5 -10.2 72 -27.1 -16.8
05:35 1019 30.09 849 25.07 -23.4 -10.1 72 -27.2 -17
05:40 1019 30.09 849 25.07 -23.4 -10.2 72 -27.2 -16.9
05:45 1019 30.09 849 25.07 -23.5 -10.3 72 -27.3 -17.1
05:50 1019 30.09 849 25.07 -23.6 -10.4 71 -27.5 -17.5
05:55 1019 30.09 848 25.04 -23.6 -10.4 72 -27.2 -17
06:00 1019 30.09 849 25.07 -23.6 -10.5 72 -27.4 -17.3
06:05 1019 30.09 848 25.04 -23.7 -10.6 71 -27.6 -17.7
06:10 1019 30.09 848 25.04 -23.8 -10.8 73 -27.3 -17.1
06:15 1019 30.09 849 25.07 -23.8 -10.8 73 -27.3 -17.1
06:20 1019 30.09 849 25.07 -23.8 -10.9 74 -27.2 -16.9
06:25 1019 30.09 849 25.07 -23.9 -11 72 -27.6 -17.7
06:30 1019 30.09 849 25.07 -24.1 -11.3 73 -27.6 -17.7
06:35 1019 30.09 849 25.07 -24.1 -11.4 75 -27.4 -17.2
06:40 1019 30.09 849 25.07 -24.1 -11.5 76 -27.2 -17
06:45 1019 30.09 849 25.07 -24.3 -11.8 75 -27.5 -17.5
06:50 1019 30.09 849 25.07 -24.9 -12.8 77 -27.8 -18.1
06:55 1019 30.09 849 25.07 -25.4 -13.8 79 -28.1 -18.6
07:00 1019 30.09 849 25.07 -25.8 -14.4 80 -28.2 -18.8
07:05 1020 30.12 849 25.07 -25.8 -14.4 80 -28.4 -19
07:10 1020 30.12 849 25.07 -25.7 -14.3 80 -28.3 -18.9
07:15 1020 30.12 849 25.07 -25.6 -14 81 -28 -18.4
07:20 1020 30.12 849 25.07 -25.5 -14 81 -27.9 -18.3
07:25 1020 30.12 849 25.07 -25.5 -13.9 80 -28 -18.3
07:30 1020 30.12 849 25.07 -25.4 -13.7 79 -28 -18.4
07:35 1020 30.12 849 25.07 -25.5 -13.8 80 -28 -18.4
07:40 1020 30.12 849 25.07 -25.4 -13.7 79 -28 -18.4
07:45 1020 30.12 849 25.07 -25.3 -13.5 79 -28 -18.3
07:50 1020 30.12 849 25.07 -25.4 -13.7 78 -28.2 -18.7
07:55 1020 30.12 849 25.07 -25.8 -14.5 78 -28.6 -19.4
08:00 1020 30.12 849 25.07 -26 -14.8 77 -28.9 -20
08:05 1020 30.12 849 25.07 -26.1 -14.9 76 -29.1 -20.4
08:10 1020 30.12 849 25.07 -26.1 -15 77 -29.1 -20.4
08:15 1020 30.12 849 25.07 -26.1 -15 75 -29.3 -20.8
08:20 1020 30.12 849 25.07 -26.3 -15.3 76 -29.3 -20.7
08:25 1020 30.12 849 25.07 -26.1 -14.9 75 -29.2 -20.6
08:30 1020 30.12 849 25.07 -25.9 -14.6 73 -29.4 -21
08:35 1020 30.12 849 25.07 -25.8 -14.5 69 -29.9 -21.7
08:40 1020 30.12 849 25.07 -25.8 -14.4 70 -29.8 -21.6
08:45 1020 30.12 849 25.07 -25.5 -13.9 71 -29.3 -20.7
08:50 1020 30.12 849 25.07 -24.9 -12.9 67 -29.4 -20.9
08:55 1020 30.12 849 25.07 -24.8 -12.6 66 -29.5 -21.1
09:00 1020 30.12 850 25.1 -24.6 -12.2 65 -29.4 -20.9
09:05 1021 30.15 850 25.1 -24.2 -11.5 65 -29 -20.3
09:10 1021 30.15 850 25.1 -23.8 -10.8 65 -28.7 -19.7
09:15 1021 30.15 850 25.1 -23.4 -10 63 -28.5 -19.4
09:20 1021 30.15 850 25.1 -23.1 -9.5 63 -28.4 -19
09:25 1021 30.15 850 25.1 -23.1 -9.5 64 -28.1 -18.6
09:30 1021 30.15 850 25.1 -23.1 -9.5 61 -28.6 -19.4
09:35 1021 30.15 850 25.1 -23.1 -9.5 63 -28.3 -18.9
09:40 1021 30.15 850 25.1 -22.9 -9.1 60 -28.6 -19.4
09:45 1021 30.15 850 25.1 -22.8 -9 63 -28.1 -18.5
09:50 1021 30.15 850 25.1 -22.4 -8.4 60 -28.2 -18.8
09:55 1021 30.15 850 25.1 -22.5 -8.4 62 -27.8 -18
10:00 1021 30.15 850 25.1 -22.5 -8.4 66 -27.1 -16.9
10:05 1021 30.15 850 25.1 -22.1 -7.7 66 -26.8 -16.2
10:10 1021 30.15 850 25.1 -22.3 -8.2 66 -27 -16.6
10:15 1021 30.15 850 25.1 -21.9 -7.5 62 -27.3 -17.2
10:20 1021 30.15 850 25.1 -21.7 -7.1 59 -27.8 -18
10:25 1021 30.15 850 25.1 -22 -7.5 59 -27.9 -18.3
10:30 1021 30.15 850 25.1 -21.9 -7.3 59 -27.9 -18.2
10:35 1021 30.15 851 25.13 -22.1 -7.7 59 -28 -18.5
10:40 1021 30.15 851 25.13 -22.2 -8 59 -28.2 -18.8
10:45 1022 30.18 851 25.13 -21.8 -7.3 59 -27.9 -18.2
10:50 1022 30.18 851 25.13 -21.5 -6.8 61 -27.2 -17
10:55 1022 30.18 851 25.13 -21 -5.8 61 -26.6 -15.9
11:00 1022 30.18 851 25.13 -20.6 -5 60 -26.4 -15.6
11:05 1022 30.18 851 25.13 -20.7 -5.2 61 -26.3 -15.4
11:10 1022 30.18 851 25.13 -20.4 -4.6 60 -26.3 -15.3
11:15 1022 30.18 851 25.13 -20.6 -5.1 61 -26.3 -15.3
11:20 1022 30.18 851 25.13 -20.4 -4.7 60 -26.3 -15.3
11:25 1022 30.18 851 25.13 -20.5 -4.8 60 -26.3 -15.4
11:30 1022 30.18 851 25.13 -20 -3.9 57 -26.5 -15.7
11:35 1022 30.18 851 25.13 -19.8 -3.6 58 -26.2 -15.1
11:40 1022 30.18 851 25.13 -20.2 -4.4 61 -26 -14.8
11:45 1021 30.15 851 25.13 -20.5 -4.9 61 -26.2 -15.1
11:50 1021 30.15 851 25.13 -20.9 -5.7 64 -26.1 -15
11:55 1021 30.15 850 25.1 -21 -5.8 63 -26.4 -15.5
12:00 1021 30.15 850 25.1 -20.8 -5.5 61 -26.4 -15.6
12:05 1021 30.15 850 25.1 -20.4 -4.8 62 -26 -14.7
12:10 1021 30.15 850 25.1 -20.1 -4.1 60 -25.9 -14.6
12:15 1021 30.15 850 25.1 -20.1 -4.1 60 -26 -14.8
12:20 1021 30.15 850 25.1 -19.9 -3.7 60 -25.7 -14.3
12:25 1021 30.15 850 25.1 -19.1 -2.4 58 -25.4 -13.7
12:30 1021 30.15 850 25.1 -18.1 -0.6 58 -24.5 -12.1
12:35 1021 30.15 850 25.1 -18.1 -0.5 54 -25.3 -13.6
12:40 1021 30.15 850 25.1 -19.2 -2.6 60 -25.1 -13.2
12:45 1021 30.15 850 25.1 -20.3 -4.5 62 -25.9 -14.5
12:50 1021 30.15 850 25.1 -20.4 -4.7 64 -25.6 -14.1
12:55 1021 30.15 850 25.1 -20 -4.1 62 -25.5 -14
13:00 1021 30.15 850 25.1 -20.4 -4.8 67 -25.1 -13.3
13:05 1021 30.15 850 25.1 -19 -2.2 58 -25.4 -13.8
13:10 1021 30.15 850 25.1 -17.7 0.2 56 -24.4 -11.9
13:15 1021 30.15 850 25.1 -18.1 -0.5 58 -24.4 -12
13:20 1021 30.15 850 25.1 -18.9 -2 60 -24.9 -12.9
13:25 1021 30.15 850 25.1 -18.3 -0.9 55 -25.1 -13.3
13:30 1021 30.15 850 25.1 -19.9 -3.9 65 -24.8 -12.7
13:35 1021 30.15 850 25.1 -19.8 -3.7 60 -25.7 -14.2
13:40 1021 30.15 850 25.1 -18.7 -1.6 58 -25 -12.9
13:45 1021 30.15 850 25.1 -18.2 -0.7 59 -24.3 -11.8
13:50 1021 30.15 850 25.1 -18.8 -1.9 61 -24.6 -12.3
13:55 1021 30.15 850 25.1 -18.2 -0.7 57 -24.7 -12.5
14:00 1021 30.15 850 25.1 -18.1 -0.7 57 -24.6 -12.3
14:05 1021 30.15 850 25.1 -17.6 0.4 57 -24.1 -11.4
14:10 1021 30.15 850 25.1 -17.8 0 56 -24.5 -12.2
14:15 1021 30.15 850 25.1 -18.1 -0.5 58 -24.5 -12
14:20 1021 30.15 850 25.1 -18.2 -0.8 58 -24.6 -12.2
14:25 1021 30.15 850 25.1 -18.3 -0.9 59 -24.4 -11.9
14:30 1021 30.15 850 25.1 -17.8 -0.1 56 -24.6 -12.3
14:35 1021 30.15 850 25.1 -17.7 0.1 58 -24.1 -11.4
14:40 1021 30.15 850 25.1 -17.9 -0.2 57 -24.5 -12.2
14:45 1021 30.15 850 25.1 -18 -0.3 58 -24.4 -11.9
14:50 1021 30.15 850 25.1 -18.5 -1.4 60 -24.6 -12.3
14:55 1021 30.15 850 25.1 -19.1 -2.4 60 -25.1 -13.2
15:00 1021 30.15 850 25.1 -19.7 -3.5 62 -25.2 -13.4
15:05 1021 30.15 851 25.13 -19.1 -2.5 61 -24.9 -12.8
15:10 1022 30.18 851 25.13 -18.1 -0.6 58 -24.6 -12.2
15:15 1022 30.18 851 25.13 -17.8 -0 56 -24.5 -12.1
15:20 1022 30.18 851 25.13 -18.4 -1.2 58 -24.8 -12.7
15:25 1022 30.18 851 25.13 -19 -2.1 58 -25.2 -13.4
15:30 1022 30.18 851 25.13 -19.4 -3 62 -24.9 -12.9
15:35 1022 30.18 851 25.13 -18.8 -1.9 59 -25.1 -13.1
15:40 1022 30.18 851 25.13 -19 -2.3 60 -25 -13
15:45 1022 30.18 851 25.13 -18.7 -1.7 59 -24.8 -12.7
15:50 1022 30.18 851 25.13 -18.4 -1.1 58 -24.8 -12.6
15:55 1022 30.18 851 25.13 -18.6 -1.4 58 -25 -12.9
16:00 1022 30.18 851 25.13 -19.1 -2.4 61 -24.8 -12.6
16:05 1022 30.18 851 25.13 -18.5 -1.3 56 -25.2 -13.4
16:10 1022 30.18 851 25.13 -18.9 -2 61 -24.7 -12.4
16:15 1022 30.18 851 25.13 -19.1 -2.3 59 -25.1 -13.2
16:20 1022 30.18 851 25.13 -18.5 -1.3 58 -24.8 -12.6
16:25 1022 30.18 851 25.13 -19.1 -2.5 61 -24.8 -12.7
16:30 1022 30.18 851 25.13 -19.5 -3 62 -25 -13
16:35 1022 30.18 851 25.13 -19.7 -3.4 62 -25.2 -13.3
16:40 1022 30.18 851 25.13 -19.3 -2.8 62 -25 -12.9
16:45 1022 30.18 851 25.13 -19.4 -2.9 62 -24.9 -12.9
16:50 1022 30.18 851 25.13 -19.1 -2.3 61 -24.9 -12.8
16:55 1022 30.18 851 25.13 -19.3 -2.8 62 -24.8 -12.7
17:00 1022 30.18 851 25.13 -19.4 -3 62 -25.1 -13.1
17:05 1022 30.18 851 25.13 -20 -4.1 64 -25.1 -13.2
17:10 1022 30.18 851 25.13 -21.1 -5.9 68 -25.5 -13.9
17:15 1022 30.18 851 25.13 -21.4 -6.4 69 -25.6 -14.1
17:20 1022 30.18 851 25.13 -21.4 -6.5 69 -25.7 -14.2
17:25 1022 30.18 851 25.13 -21.5 -6.6 69 -25.8 -14.4
17:30 1022 30.18 851 25.13 -21.5 -6.6 69 -25.7 -14.3
17:35 1022 30.18 851 25.13 -21.4 -6.4 69 -25.6 -14.1
17:40 1022 30.18 851 25.13 -21.7 -7.1 72 -25.5 -13.9
17:45 1022 30.18 851 25.13 -21.9 -7.5 70 -26 -14.7
17:50 1022 30.18 851 25.13 -22 -7.5 73 -25.6 -14.1
17:55 1022 30.18 851 25.13 -22.2 -8 77 -25.3 -13.5
18:00 1022 30.18 852 25.16 -22.5 -8.5 77 -25.4 -13.8
18:05 1022 30.18 852 25.16 -22.6 -8.6 78 -25.4 -13.7
18:10 1022 30.18 852 25.16 -22.7 -8.9 80 -25.2 -13.4
18:15 1023 30.21 852 25.16 -23 -9.4 81 -25.4 -13.7
18:20 1023 30.21 852 25.16 -23.3 -10 80 -25.9 -14.6
18:25 1023 30.21 852 25.16 -23.5 -10.4 80 -26.1 -15.1
18:30 1023 30.21 852 25.16 -23.6 -10.5 79 -26.3 -15.3
18:35 1023 30.21 852 25.16 -23.7 -10.7 80 -26.3 -15.3
18:40 1023 30.21 852 25.16 -23.5 -10.3 78 -26.4 -15.5
18:45 1023 30.21 852 25.16 -23.3 -10 77 -26.3 -15.4
18:50 1023 30.21 852 25.16 -23.4 -10.2 77 -26.4 -15.6
18:55 1023 30.21 852 25.16 -23.5 -10.3 78 -26.4 -15.5
19:00 1023 30.21 852 25.16 -23.7 -10.7 77 -26.6 -15.9
19:05 1023 30.21 852 25.16 -24 -11.1 78 -26.8 -16.2
19:10 1023 30.21 852 25.16 -24.2 -11.5 80 -26.7 -16.1
19:15 1023 30.21 852 25.16 -24.2 -11.5 79 -26.9 -16.4
19:20 1023 30.21 852 25.16 -24.3 -11.8 79 -27 -16.5
19:25 1023 30.21 852 25.16 -24.6 -12.2 78 -27.4 -17.2
19:30 1023 30.21 852 25.16 -24.7 -12.4 79 -27.3 -17.2
19:35 1023 30.21 852 25.16 -24.5 -12.1 77 -27.4 -17.3
19:40 1023 30.21 852 25.16 -24.5 -12 77 -27.4 -17.3
19:45 1023 30.21 852 25.16 -24.4 -12 77 -27.4 -17.4
19:50 1023 30.21 852 25.16 -24.4 -11.9 76 -27.5 -17.4
19:55 1023 30.21 852 25.16 -24.6 -12.2 76 -27.7 -17.9
20:00 1023 30.21 852 25.16 -25.1 -13.1 76 -28.1 -18.6
20:05 1023 30.21 852 25.16 -25.4 -13.7 77 -28.3 -19
20:10 1023 30.21 852 25.16 -25.3 -13.6 76 -28.4 -19.1
20:15 1023 30.21 852 25.16 -25.3 -13.5 76 -28.3 -19
20:20 1023 30.21 852 25.16 -25.2 -13.4 76 -28.3 -18.9
20:25 1023 30.21 852 25.16 -25.2 -13.4 76 -28.3 -18.9
20:30 1023 30.21 852 25.16 -25.2 -13.3 76 -28.2 -18.8
20:35 1023 30.21 852 25.16 -25.2 -13.3 76 -28.2 -18.8
20:40 1023 30.21 852 25.16 -25.2 -13.3 76 -28.3 -18.9
20:45 1023 30.21 853 25.19 -25 -13 76 -28.2 -18.7
20:50 1023 30.21 853 25.19 -24.7 -12.5 76 -27.8 -18.1
20:55 1023 30.21 853 25.19 -24.4 -11.9 75 -27.7 -17.8
21:00 1023 30.21 853 25.19 -24.4 -11.8 75 -27.6 -17.6
21:05 1023 30.21 853 25.19 -24.5 -12.1 74 -27.8 -18.1
21:10 1024 30.24 853 25.19 -24.9 -12.8 77 -27.8 -18.1
21:15 1024 30.24 853 25.19 -24.5 -12.1 75 -27.7 -17.8
21:20 1024 30.24 853 25.19 -24.3 -11.7 75 -27.5 -17.5
21:25 1024 30.24 853 25.19 -24.8 -12.6 75 -27.9 -18.3
21:30 1023 30.21 853 25.19 -25.3 -13.6 76 -28.5 -19.2
21:35 1024 30.24 853 25.19 -25.8 -14.4 78 -28.5 -19.4
21:40 1023 30.21 853 25.19 -25.5 -14 76 -28.6 -19.4
21:45 1023 30.21 853 25.19 -25.4 -13.7 78 -28.2 -18.8
21:50 1024 30.24 853 25.19 -25.2 -13.3 77 -28 -18.4
21:55 1024 30.24 853 25.19 -24.8 -12.6 76 -27.9 -18.2
22:00 1024 30.24 853 25.19 -24.6 -12.3 74 -28.1 -18.5
22:05 1023 30.21 853 25.19 -24.8 -12.6 75 -28.1 -18.5
22:10 1023 30.21 853 25.19 -25.2 -13.3 75 -28.4 -19.1
22:15 1023 30.21 853 25.19 -25.6 -14 77 -28.6 -19.4
22:20 1023 30.21 853 25.19 -25.5 -13.9 75 -28.7 -19.7
22:25 1024 30.24 853 25.19 -25.5 -14 76 -28.6 -19.4
22:30 1024 30.24 853 25.19 -25.2 -13.4 75 -28.5 -19.2
22:35 1024 30.24 853 25.19 -25 -13.1 75 -28.3 -18.9
22:40 1024 30.24 853 25.19 -24.8 -12.7 74 -28.2 -18.8
22:45 1024 30.24 853 25.19 -24.8 -12.6 74 -28.3 -18.9
22:50 1024 30.24 853 25.19 -25 -12.9 76 -28 -18.4
22:55 1024 30.24 853 25.19 -24.7 -12.5 75 -28 -18.4
23:00 1024 30.24 853 25.19 -24.7 -12.5 75 -28 -18.5
23:05 1024 30.24 853 25.19 -24.9 -12.9 78 -27.8 -18
23:10 1024 30.24 853 25.19 -24.8 -12.6 79 -27.4 -17.3
23:15 1024 30.24 853 25.19 -24.4 -11.9 76 -27.5 -17.5
23:20 1024 30.24 853 25.19 -24.1 -11.3 76 -27.2 -16.9
23:25 1024 30.24 853 25.19 -23.9 -11 74 -27.3 -17.1
23:30 1024 30.24 853 25.19 -24.1 -11.3 74 -27.4 -17.4
23:35 1024 30.24 853 25.19 -24.6 -12.3 77 -27.5 -17.5
23:40 1024 30.24 853 25.19 -24.7 -12.4 74 -28.1 -18.6
23:45 1024 30.24 853 25.19 -25.1 -13.1 78 -27.9 -18.2
23:50 1024 30.24 853 25.19 -24.9 -12.8 75 -28.2 -18.7
23:55 1024 30.24 853 25.19 -25.2 -13.3 75 -28.3 -19
24:00 1024 30.24 853 25.19 -25.5 -13.9 75 -28.7 -19.7